createdAt,value
2019-03-09T00:00:07.564Z,13.90
2019-03-09T00:02:09.999Z,13.73
2019-03-09T00:04:10.841Z,13.43
2019-03-09T00:06:13.477Z,13.67
2019-03-09T00:08:14.649Z,12.27
2019-03-09T00:10:15.493Z,13.27
2019-03-09T00:12:16.369Z,12.10
2019-03-09T00:14:17.252Z,11.97
2019-03-09T00:16:18.249Z,10.90
2019-03-09T00:18:19.970Z,10.90
2019-03-09T00:20:20.819Z,11.63
2019-03-09T00:22:21.674Z,11.60
2019-03-09T00:24:37.680Z,11.50
2019-03-09T00:26:54.913Z,10.90
2019-03-09T00:29:18.161Z,10.90
2019-03-09T00:31:25.433Z,11.30
2019-03-09T00:33:26.460Z,11.47
2019-03-09T00:35:28.505Z,10.47
2019-03-09T00:37:29.699Z,10.70
2019-03-09T00:39:31.873Z,10.30
2019-03-09T00:41:33.106Z,10.57
2019-03-09T00:43:34.356Z,9.87
2019-03-09T00:45:36.366Z,8.80
2019-03-09T00:47:37.293Z,8.47
2019-03-09T00:49:38.126Z,9.30
2019-03-09T00:51:39.245Z,8.60
2019-03-09T00:53:40.087Z,8.50
2019-03-09T00:55:40.917Z,8.83
2019-03-09T00:57:41.761Z,8.80
2019-03-09T00:59:42.592Z,10.90
2019-03-09T01:01:43.449Z,10.87
2019-03-09T01:03:44.364Z,10.23
2019-03-09T01:05:45.292Z,9.83
2019-03-09T01:07:46.153Z,9.07
2019-03-09T01:09:47.075Z,9.07
2019-03-09T01:11:47.917Z,9.07
2019-03-09T01:13:48.752Z,8.97
2019-03-09T01:15:50.023Z,9.27
2019-03-09T01:17:53.607Z,9.20
2019-03-09T01:19:54.902Z,9.37
2019-03-09T01:21:55.801Z,8.90
2019-03-09T01:23:57.466Z,9.40
2019-03-09T01:25:58.319Z,8.77
2019-03-09T01:27:59.162Z,8.50
2019-03-09T01:29:59.981Z,8.27
2019-03-09T01:32:06.489Z,8.47
2019-03-09T01:34:10.103Z,8.30
2019-03-09T01:36:11.659Z,8.70
2019-03-09T01:38:12.579Z,8.00
2019-03-09T01:40:13.470Z,7.97
2019-03-09T01:42:14.788Z,8.17
2019-03-09T01:44:18.002Z,7.23
2019-03-09T01:46:18.990Z,7.50
2019-03-09T01:48:21.140Z,7.60
2019-03-09T01:50:22.017Z,7.47
2019-03-09T01:52:22.901Z,7.47
2019-03-09T01:54:23.786Z,6.83
2019-03-09T01:56:24.662Z,7.57
2019-03-09T01:58:25.776Z,7.50
2019-03-09T02:00:26.754Z,7.03
2019-03-09T02:02:27.649Z,7.27
2019-03-09T02:04:28.522Z,7.13
2019-03-09T02:06:29.358Z,7.17
2019-03-09T02:08:30.449Z,7.90
2019-03-09T02:10:31.424Z,8.10
2019-03-09T02:12:32.276Z,8.10
2019-03-09T02:14:33.129Z,7.93
2019-03-09T02:16:33.963Z,8.30
2019-03-09T02:18:34.821Z,9.27
2019-03-09T02:20:35.671Z,8.60
2019-03-09T02:22:36.509Z,8.43
2019-03-09T02:24:37.365Z,8.87
2019-03-09T02:26:38.197Z,9.20
2019-03-09T02:28:39.033Z,9.40
2019-03-09T02:30:39.889Z,8.67
2019-03-09T02:32:40.737Z,8.63
2019-03-09T02:34:41.557Z,9.70
2019-03-09T02:36:42.417Z,9.43
2019-03-09T02:39:01.764Z,8.67
2019-03-09T02:41:02.698Z,9.17
2019-03-09T02:43:03.550Z,6.50
2019-03-09T02:45:04.495Z,5.57
2019-03-09T02:47:05.333Z,6.83
2019-03-09T02:49:06.669Z,6.40
2019-03-09T02:51:07.529Z,6.07
2019-03-09T02:53:08.462Z,6.47
2019-03-09T02:55:09.289Z,6.70
2019-03-09T02:57:10.150Z,6.20
2019-03-09T02:59:10.998Z,5.97
2019-03-09T03:01:21.758Z,6.97
2019-03-09T03:03:22.589Z,6.10
2019-03-09T03:05:23.438Z,5.53
2019-03-09T03:07:24.928Z,6.23
2019-03-09T03:09:25.777Z,5.40
2019-03-09T03:11:26.921Z,5.23
2019-03-09T03:13:27.748Z,4.70
2019-03-09T03:15:28.577Z,4.30
2019-03-09T03:17:29.433Z,4.40
2019-03-09T03:19:30.265Z,3.80
2019-03-09T03:21:31.102Z,4.20
2019-03-09T03:23:31.966Z,3.80
2019-03-09T03:25:32.829Z,4.30
2019-03-09T03:27:33.736Z,4.40
2019-03-09T03:29:34.567Z,4.10
2019-03-09T03:31:35.417Z,3.80
2019-03-09T03:33:36.279Z,3.60
2019-03-09T03:35:37.110Z,3.50
2019-03-09T03:37:37.970Z,3.20
2019-03-09T03:39:38.793Z,3.30
2019-03-09T03:41:39.637Z,3.63
2019-03-09T03:43:40.485Z,3.40
2019-03-09T03:45:41.339Z,3.00
2019-03-09T03:47:42.184Z,3.20
2019-03-09T03:49:43.033Z,3.30
2019-03-09T03:51:43.898Z,3.30
2019-03-09T03:53:44.795Z,3.20
2019-03-09T03:55:45.698Z,3.30
2019-03-09T03:57:46.538Z,3.20
2019-03-09T03:59:47.408Z,3.00
2019-03-09T04:01:48.253Z,2.80
2019-03-09T04:03:49.121Z,2.90
2019-03-09T04:05:50.049Z,3.00
2019-03-09T04:07:50.900Z,2.80
2019-03-09T04:09:51.743Z,2.90
2019-03-09T04:11:52.576Z,3.07
2019-03-09T04:13:53.417Z,2.90
2019-03-09T04:15:54.254Z,2.90
2019-03-09T04:17:55.097Z,2.70
2019-03-09T04:19:55.941Z,2.60
2019-03-09T04:21:57.118Z,2.90
2019-03-09T04:23:57.945Z,2.97
2019-03-09T04:25:58.769Z,2.40
2019-03-09T04:27:59.630Z,2.50
2019-03-09T04:30:00.503Z,2.50
2019-03-09T04:32:01.425Z,2.40
2019-03-09T04:34:02.282Z,2.30
2019-03-09T04:36:03.120Z,2.33
2019-03-09T04:38:03.957Z,2.60
2019-03-09T04:40:04.800Z,2.27
2019-03-09T04:42:05.631Z,2.43
2019-03-09T04:44:06.464Z,2.30
2019-03-09T04:46:07.309Z,2.00
2019-03-09T04:48:08.158Z,2.20
2019-03-09T04:50:09.244Z,2.17
2019-03-09T04:52:10.103Z,2.10
2019-03-09T04:54:10.929Z,2.10
2019-03-09T04:56:11.772Z,2.20
2019-03-09T04:58:12.621Z,2.20
2019-03-09T05:00:13.461Z,1.90
2019-03-09T05:02:14.313Z,1.70
2019-03-09T05:04:15.164Z,1.90
2019-03-09T05:06:16.026Z,1.90
2019-03-09T05:08:16.863Z,1.60
2019-03-09T05:10:17.692Z,1.83
2019-03-09T05:12:18.545Z,1.80
2019-03-09T05:14:19.390Z,2.10
2019-03-09T05:16:20.231Z,1.93
2019-03-09T05:18:21.317Z,1.90
2019-03-09T05:20:22.168Z,1.83
2019-03-09T05:22:23.026Z,1.70
2019-03-09T05:24:23.859Z,1.60
2019-03-09T05:26:24.696Z,1.53
2019-03-09T05:28:25.544Z,1.60
2019-03-09T05:30:26.372Z,1.77
2019-03-09T05:32:27.210Z,1.50
2019-03-09T05:34:28.065Z,1.60
2019-03-09T05:36:28.901Z,1.57
2019-03-09T05:38:29.729Z,1.67
2019-03-09T05:40:30.592Z,1.60
2019-03-09T05:42:31.425Z,1.47
2019-03-09T05:44:32.261Z,1.60
2019-03-09T05:46:33.104Z,1.57
2019-03-09T05:48:33.933Z,2.03
2019-03-09T05:50:34.772Z,1.60
2019-03-09T05:52:35.600Z,1.80
2019-03-09T05:54:36.424Z,1.60
2019-03-09T05:56:37.291Z,1.70
2019-03-09T05:58:38.124Z,1.60
2019-03-09T06:00:39.889Z,1.57
2019-03-09T06:02:40.749Z,1.57
2019-03-09T06:04:41.921Z,1.60
2019-03-09T06:06:42.774Z,1.77
2019-03-09T06:08:43.608Z,1.50
2019-03-09T06:10:44.456Z,1.90
2019-03-09T06:12:45.293Z,1.90
2019-03-09T06:14:46.147Z,1.50
2019-03-09T06:16:46.990Z,1.70
2019-03-09T06:18:47.920Z,1.90
2019-03-09T06:20:48.773Z,1.50
2019-03-09T06:22:49.609Z,1.60
2019-03-09T06:24:50.444Z,1.73
2019-03-09T06:26:51.273Z,1.90
2019-03-09T06:28:52.132Z,1.53
2019-03-09T06:30:52.995Z,1.80
2019-03-09T06:32:53.855Z,1.50
2019-03-09T06:34:55.039Z,1.57
2019-03-09T06:36:55.873Z,1.57
2019-03-09T06:38:56.716Z,1.53
2019-03-09T06:41:02.864Z,1.60
2019-03-09T06:43:00.321Z,1.70
2019-03-09T06:45:01.157Z,1.50
2019-03-09T06:47:01.993Z,1.40
2019-03-09T06:49:02.955Z,1.70
2019-03-09T06:51:03.789Z,1.60
2019-03-09T06:53:04.639Z,1.60
2019-03-09T06:55:05.477Z,1.60
2019-03-09T06:57:13.469Z,1.50
2019-03-09T06:59:09.057Z,1.73
2019-03-09T07:01:09.897Z,1.60
2019-03-09T07:03:10.741Z,1.80
2019-03-09T07:05:11.572Z,1.87
2019-03-09T07:07:12.405Z,1.30
2019-03-09T07:09:13.545Z,1.73
2019-03-09T07:11:14.384Z,1.63
2019-03-09T07:13:15.225Z,1.60
2019-03-09T07:15:16.372Z,1.50
2019-03-09T07:17:17.269Z,1.40
2019-03-09T07:19:18.122Z,1.70
2019-03-09T07:21:18.953Z,1.73
2019-03-09T07:23:19.802Z,1.50
2019-03-09T07:25:20.629Z,1.80
2019-03-09T07:27:21.491Z,1.23
2019-03-09T07:29:22.320Z,1.50
2019-03-09T07:31:23.169Z,1.40
2019-03-09T07:33:24.053Z,1.47
2019-03-09T07:35:24.876Z,1.40
2019-03-09T07:37:25.704Z,1.57
2019-03-09T07:39:26.561Z,1.40
2019-03-09T07:41:27.407Z,1.60
2019-03-09T07:43:28.232Z,1.67
2019-03-09T07:45:29.091Z,1.63
2019-03-09T07:47:29.928Z,1.50
2019-03-09T07:49:30.756Z,1.70
2019-03-09T07:51:31.617Z,1.37
2019-03-09T07:53:32.463Z,1.60
2019-03-09T07:55:33.308Z,1.50
2019-03-09T07:57:34.135Z,1.50
2019-03-09T07:59:35.256Z,1.73
2019-03-09T08:01:36.131Z,1.60
2019-03-09T08:03:36.952Z,1.80
2019-03-09T08:05:37.792Z,1.70
2019-03-09T08:07:38.636Z,1.67
2019-03-09T08:09:39.489Z,1.60
2019-03-09T08:11:40.341Z,1.47
2019-03-09T08:13:41.491Z,1.57
2019-03-09T08:15:42.328Z,1.72
2019-03-09T08:17:43.182Z,1.70
2019-03-09T08:19:44.212Z,1.50
2019-03-09T08:21:45.057Z,1.83
2019-03-09T08:23:45.900Z,1.60
2019-03-09T08:25:46.732Z,1.60
2019-03-09T08:27:47.849Z,1.47
2019-03-09T08:29:48.684Z,1.60
2019-03-09T08:31:49.524Z,1.67
2019-03-09T08:33:50.669Z,1.50
2019-03-09T08:35:51.512Z,1.50
2019-03-09T08:37:52.465Z,1.77
2019-03-09T08:39:53.300Z,1.60
2019-03-09T08:41:54.140Z,1.17
2019-03-09T08:43:55.020Z,1.53
2019-03-09T08:45:56.597Z,1.60
2019-03-09T08:47:57.460Z,1.57
2019-03-09T08:49:58.296Z,1.50
2019-03-09T08:51:59.152Z,1.53
2019-03-09T08:54:00.297Z,1.40
2019-03-09T08:56:01.137Z,1.50
2019-03-09T08:58:02.269Z,1.50
2019-03-09T09:00:03.230Z,1.60
2019-03-09T09:02:04.099Z,1.40
2019-03-09T09:04:05.296Z,1.40
2019-03-09T09:06:06.417Z,1.40
2019-03-09T09:08:07.270Z,1.50
2019-03-09T09:10:08.395Z,1.30
2019-03-09T09:12:09.285Z,1.40
2019-03-09T09:14:10.128Z,1.47
2019-03-09T09:16:10.965Z,1.17
2019-03-09T09:18:11.819Z,1.57
2019-03-09T09:20:12.636Z,1.50
2019-03-09T09:22:13.494Z,1.40
2019-03-09T09:24:14.333Z,1.60
2019-03-09T09:26:15.474Z,1.47
2019-03-09T09:28:16.325Z,1.60
2019-03-09T09:30:17.176Z,1.50
2019-03-09T09:32:18.012Z,1.03
2019-03-09T09:34:18.851Z,1.30
2019-03-09T09:36:19.952Z,1.10
2019-03-09T09:38:21.101Z,1.33
2019-03-09T09:40:22.303Z,1.30
2019-03-09T09:42:23.141Z,1.40
2019-03-09T09:44:24.010Z,1.97
2019-03-09T09:46:24.854Z,1.27
2019-03-09T09:48:25.695Z,1.00
2019-03-09T09:50:26.568Z,1.30
2019-03-09T09:52:27.417Z,1.20
2019-03-09T09:54:28.280Z,1.13
2019-03-09T09:56:29.104Z,1.00
2019-03-09T09:58:29.941Z,1.10
2019-03-09T10:00:30.803Z,1.10
2019-03-09T10:02:31.647Z,1.10
2019-03-09T10:04:32.519Z,1.20
2019-03-09T10:06:34.178Z,1.03
2019-03-09T10:08:35.037Z,1.47
2019-03-09T10:10:35.890Z,1.13
2019-03-09T10:12:36.742Z,0.80
2019-03-09T10:14:37.688Z,1.23
2019-03-09T10:16:38.517Z,1.20
2019-03-09T10:18:39.709Z,0.90
2019-03-09T10:20:40.540Z,1.00
2019-03-09T10:22:41.376Z,1.20
2019-03-09T10:24:42.233Z,1.30
2019-03-09T10:26:43.158Z,1.37
2019-03-09T10:28:44.272Z,1.10
2019-03-09T10:30:45.128Z,1.17
2019-03-09T10:32:45.989Z,1.70
2019-03-09T10:34:46.840Z,1.80
2019-03-09T10:36:47.674Z,2.50
2019-03-09T10:38:48.544Z,2.10
2019-03-09T10:40:49.368Z,1.63
2019-03-09T10:42:50.263Z,1.20
2019-03-09T10:44:51.199Z,1.30
2019-03-09T10:46:52.028Z,1.30
2019-03-09T10:48:52.882Z,1.27
2019-03-09T10:50:53.737Z,1.40
2019-03-09T10:52:54.588Z,1.20
2019-03-09T10:54:55.417Z,1.20
2019-03-09T10:56:56.281Z,1.40
2019-03-09T10:58:57.108Z,1.33
2019-03-09T11:00:57.942Z,1.47
2019-03-09T11:02:58.805Z,1.40
2019-03-09T11:04:59.661Z,1.27
2019-03-09T11:07:00.500Z,1.20
2019-03-09T11:09:01.376Z,1.30
2019-03-09T11:11:02.203Z,1.30
2019-03-09T11:13:03.040Z,1.07
2019-03-09T11:15:03.884Z,1.30
2019-03-09T11:17:04.713Z,1.40
2019-03-09T11:19:05.541Z,1.30
2019-03-09T11:21:06.425Z,1.10
2019-03-09T11:23:07.293Z,1.20
2019-03-09T11:25:08.143Z,1.57
2019-03-09T11:27:08.956Z,1.10
2019-03-09T11:29:09.804Z,1.67
2019-03-09T11:31:10.653Z,1.33
2019-03-09T11:33:11.476Z,1.60
2019-03-09T11:35:12.340Z,1.20
2019-03-09T11:37:13.196Z,1.23
2019-03-09T11:39:14.062Z,1.43
2019-03-09T11:41:19.055Z,1.30
2019-03-09T11:43:17.622Z,1.60
2019-03-09T11:45:18.806Z,1.50
2019-03-09T11:47:19.657Z,1.20
2019-03-09T11:49:20.540Z,1.30
2019-03-09T11:51:21.396Z,1.40
2019-03-09T11:53:22.233Z,2.10
2019-03-09T11:55:23.260Z,1.20
2019-03-09T11:57:24.106Z,1.20
2019-03-09T11:59:24.955Z,1.20
2019-03-09T12:01:26.094Z,1.30
2019-03-09T12:03:26.948Z,1.10
2019-03-09T12:05:27.793Z,1.40
2019-03-09T12:07:28.640Z,1.50
2019-03-09T12:09:29.809Z,1.63
2019-03-09T12:11:30.664Z,1.30
2019-03-09T12:13:31.512Z,1.33
2019-03-09T12:15:32.570Z,1.53
2019-03-09T12:17:33.400Z,1.37
2019-03-09T12:19:34.244Z,1.70
2019-03-09T12:21:35.160Z,1.80
2019-03-09T12:23:36.013Z,1.60
2019-03-09T12:25:37.008Z,1.60
2019-03-09T12:27:37.840Z,1.47
2019-03-09T12:29:38.696Z,1.70
2019-03-09T12:31:39.516Z,1.80
2019-03-09T12:33:40.356Z,1.50
2019-03-09T12:35:43.907Z,1.40
2019-03-09T12:37:44.253Z,1.60
2019-03-09T12:39:45.088Z,1.57
2019-03-09T12:41:45.968Z,1.40
2019-03-09T12:43:46.796Z,1.80
2019-03-09T12:45:47.627Z,1.80
2019-03-09T12:47:48.944Z,1.60
2019-03-09T12:49:49.959Z,1.80
2019-03-09T12:51:50.807Z,1.60
2019-03-09T12:53:51.629Z,1.97
2019-03-09T12:55:52.464Z,1.50
2019-03-09T12:57:53.316Z,1.47
2019-03-09T12:59:54.168Z,1.67
2019-03-09T13:01:54.995Z,1.50
2019-03-09T13:03:56.072Z,1.50
2019-03-09T13:05:56.916Z,1.30
2019-03-09T13:07:57.748Z,1.60
2019-03-09T13:09:58.610Z,1.53
2019-03-09T13:11:59.443Z,1.50
2019-03-09T13:14:00.329Z,1.30
2019-03-09T13:16:01.625Z,1.30
2019-03-09T13:18:02.459Z,1.63
2019-03-09T13:20:03.323Z,1.70
2019-03-09T13:22:04.184Z,1.50
2019-03-09T13:24:05.357Z,1.40
2019-03-09T13:26:06.236Z,1.30
2019-03-09T13:28:07.056Z,1.40
2019-03-09T13:30:07.982Z,1.70
2019-03-09T13:32:08.829Z,1.50
2019-03-09T13:34:10.025Z,1.60
2019-03-09T13:36:10.857Z,1.40
2019-03-09T13:38:11.820Z,1.30
2019-03-09T13:40:12.940Z,1.40
2019-03-09T13:42:14.095Z,1.40
2019-03-09T13:44:14.947Z,1.53
2019-03-09T13:46:15.789Z,1.50
2019-03-09T13:48:16.896Z,1.73
2019-03-09T13:50:17.733Z,1.70
2019-03-09T13:52:18.569Z,1.53
2019-03-09T13:54:19.413Z,1.53
2019-03-09T13:56:20.241Z,1.90
2019-03-09T13:58:21.192Z,1.60
2019-03-09T14:00:22.016Z,1.40
2019-03-09T14:02:22.862Z,1.67
2019-03-09T14:04:23.686Z,1.67
2019-03-09T14:06:24.526Z,1.50
2019-03-09T14:08:25.384Z,1.70
2019-03-09T14:10:26.231Z,1.60
2019-03-09T14:12:27.057Z,1.47
2019-03-09T14:14:27.915Z,1.87
2019-03-09T14:16:28.764Z,1.53
2019-03-09T14:18:29.597Z,1.50
2019-03-09T14:20:30.466Z,1.70
2019-03-09T14:22:31.292Z,1.60
2019-03-09T14:24:32.132Z,1.70
2019-03-09T14:26:32.989Z,1.60
2019-03-09T14:28:33.836Z,1.40
2019-03-09T14:30:34.700Z,1.30
2019-03-09T14:32:35.528Z,1.50
2019-03-09T14:34:36.356Z,1.50
2019-03-09T14:36:37.209Z,1.70
2019-03-09T14:38:38.040Z,1.50
2019-03-09T14:40:38.897Z,1.63
2019-03-09T14:42:39.733Z,1.77
2019-03-09T14:44:40.588Z,1.63
2019-03-09T14:46:41.754Z,1.60
2019-03-09T14:48:42.589Z,1.60
2019-03-09T14:50:43.741Z,1.33
2019-03-09T14:52:44.572Z,1.73
2019-03-09T14:54:45.424Z,1.73
2019-03-09T14:56:46.264Z,1.80
2019-03-09T14:58:47.112Z,1.73
2019-03-09T15:00:48.316Z,1.67
2019-03-09T15:02:49.158Z,1.63
2019-03-09T15:04:50.486Z,1.70
2019-03-09T15:06:51.345Z,1.97
2019-03-09T15:08:52.179Z,1.97
2019-03-09T15:10:53.037Z,2.20
2019-03-09T15:12:54.236Z,2.00
2019-03-09T15:14:55.068Z,2.10
2019-03-09T15:16:56.225Z,2.10
2019-03-09T15:18:57.356Z,2.33
2019-03-09T15:20:58.228Z,2.20
2019-03-09T15:22:59.073Z,1.80
2019-03-09T15:24:59.917Z,1.80
2019-03-09T15:27:01.108Z,1.80
2019-03-09T15:29:01.982Z,1.80
2019-03-09T15:31:02.826Z,1.80
2019-03-09T15:33:03.665Z,1.53
2019-03-09T15:35:04.521Z,1.87
2019-03-09T15:37:05.676Z,1.67
2019-03-09T15:39:06.528Z,1.53
2019-03-09T15:41:07.398Z,1.43
2019-03-09T15:43:08.224Z,1.70
2019-03-09T15:45:09.043Z,1.70
2019-03-09T15:47:10.240Z,1.63
2019-03-09T15:49:11.084Z,1.40
2019-03-09T15:51:11.932Z,1.50
2019-03-09T15:53:12.765Z,3.10
2019-03-09T15:55:13.720Z,2.30
2019-03-09T15:57:14.673Z,1.80
2019-03-09T15:59:15.856Z,2.23
2019-03-09T16:01:16.697Z,2.30
2019-03-09T16:03:17.543Z,1.90
2019-03-09T16:05:18.376Z,1.50
2019-03-09T16:07:19.314Z,1.50
2019-03-09T16:09:20.359Z,1.33
2019-03-09T16:11:21.204Z,1.57
2019-03-09T16:13:24.224Z,1.30
2019-03-09T16:15:24.889Z,1.47
2019-03-09T16:17:25.709Z,1.20
2019-03-09T16:19:26.551Z,1.10
2019-03-09T16:21:27.393Z,1.00
2019-03-09T16:23:28.464Z,1.03
2019-03-09T16:25:29.325Z,1.10
2019-03-09T16:27:30.188Z,1.20
2019-03-09T16:29:31.155Z,1.13
2019-03-09T16:31:32.057Z,1.30
2019-03-09T16:33:33.179Z,1.40
2019-03-09T16:35:34.125Z,1.50
2019-03-09T16:37:34.984Z,1.30
2019-03-09T16:39:36.292Z,1.40
2019-03-09T16:41:37.156Z,1.50
2019-03-09T16:43:38.095Z,1.30
2019-03-09T16:45:39.048Z,1.40
2019-03-09T16:47:39.886Z,1.50
2019-03-09T16:49:41.080Z,1.50
2019-03-09T16:51:41.928Z,1.30
2019-03-09T16:53:43.013Z,1.53
2019-03-09T16:55:43.863Z,1.63
2019-03-09T16:57:44.697Z,1.60
2019-03-09T16:59:45.542Z,1.47
2019-03-09T17:01:46.430Z,1.67
2019-03-09T17:03:47.267Z,1.70
2019-03-09T17:05:48.133Z,1.70
2019-03-09T17:07:48.962Z,1.70
2019-03-09T17:09:49.835Z,1.83
2019-03-09T17:11:50.681Z,2.10
2019-03-09T17:13:51.612Z,1.60
2019-03-09T17:15:52.552Z,1.93
2019-03-09T17:17:53.489Z,1.80
2019-03-09T17:19:54.321Z,1.87
2019-03-09T17:21:55.179Z,1.70
2019-03-09T17:23:56.084Z,1.90
2019-03-09T17:25:57.208Z,1.80
2019-03-09T17:27:58.045Z,1.70
2019-03-09T17:29:59.164Z,1.90
2019-03-09T17:32:00.438Z,2.23
2019-03-09T17:34:01.852Z,1.87
2019-03-09T17:36:02.710Z,1.70
2019-03-09T17:38:03.570Z,1.90
2019-03-09T17:40:04.410Z,1.90
2019-03-09T17:42:05.260Z,2.17
2019-03-09T17:44:06.105Z,2.03
2019-03-09T17:46:07.290Z,1.90
2019-03-09T17:48:08.129Z,1.83
2019-03-09T17:50:08.985Z,2.10
2019-03-09T17:52:10.177Z,2.00
2019-03-09T17:54:11.028Z,2.10
2019-03-09T17:56:11.984Z,1.90
2019-03-09T17:58:12.836Z,1.80
2019-03-09T18:00:13.685Z,2.00
2019-03-09T18:02:14.531Z,2.00
2019-03-09T18:04:15.377Z,2.10
2019-03-09T18:06:16.540Z,2.00
2019-03-09T18:08:17.544Z,2.07
2019-03-09T18:10:18.426Z,2.03
2019-03-09T18:12:19.265Z,1.80
2019-03-09T18:14:20.120Z,1.93
2019-03-09T18:16:21.200Z,2.10
2019-03-09T18:18:22.077Z,2.23
2019-03-09T18:20:22.978Z,2.83
2019-03-09T18:22:23.854Z,2.47
2019-03-09T18:24:24.727Z,2.70
2019-03-09T18:26:25.553Z,2.10
2019-03-09T18:28:26.384Z,2.47
2019-03-09T18:30:27.224Z,2.60
2019-03-09T18:32:28.373Z,2.43
2019-03-09T18:34:29.224Z,2.50
2019-03-09T18:36:30.059Z,2.80
2019-03-09T18:38:30.885Z,2.50
2019-03-09T18:40:31.741Z,2.23
2019-03-09T18:42:32.560Z,2.30
2019-03-09T18:44:33.406Z,2.40
2019-03-09T18:46:34.233Z,2.67
2019-03-09T18:48:35.064Z,2.73
2019-03-09T18:50:35.912Z,2.27
2019-03-09T18:52:36.764Z,2.37
2019-03-09T18:54:37.599Z,2.47
2019-03-09T18:56:38.434Z,2.20
2019-03-09T18:58:39.645Z,2.50
2019-03-09T19:00:40.490Z,2.33
2019-03-09T19:02:41.403Z,1.90
2019-03-09T19:04:42.254Z,2.10
2019-03-09T19:06:43.189Z,2.30
2019-03-09T19:08:44.115Z,2.60
2019-03-09T19:10:44.961Z,2.30
2019-03-09T19:12:46.053Z,2.20
2019-03-09T19:14:46.888Z,2.27
2019-03-09T19:16:47.748Z,2.50
2019-03-09T19:18:48.576Z,2.47
2019-03-09T19:20:49.410Z,2.20
2019-03-09T19:22:50.548Z,2.30
2019-03-09T19:24:51.385Z,2.20
2019-03-09T19:26:52.237Z,2.43
2019-03-09T19:28:53.064Z,2.60
2019-03-09T19:30:53.914Z,2.80
2019-03-09T19:33:00.230Z,2.73
2019-03-09T19:34:57.492Z,2.50
2019-03-09T19:36:58.336Z,2.30
2019-03-09T19:38:59.177Z,2.47
2019-03-09T19:41:00.120Z,2.30
2019-03-09T19:43:00.949Z,2.67
2019-03-09T19:45:01.804Z,2.53
2019-03-09T19:47:02.650Z,2.50
2019-03-09T19:49:03.837Z,2.50
2019-03-09T19:51:04.690Z,2.50
2019-03-09T19:53:05.526Z,2.50
2019-03-09T19:55:06.377Z,2.17
2019-03-09T19:57:07.230Z,2.20
2019-03-09T19:59:08.093Z,2.37
2019-03-09T20:01:08.926Z,2.20
2019-03-09T20:03:09.781Z,2.47
2019-03-09T20:05:10.728Z,2.30
2019-03-09T20:07:11.569Z,2.50
2019-03-09T20:09:12.425Z,2.53
2019-03-09T20:11:13.270Z,2.50
2019-03-09T20:13:14.098Z,2.33
2019-03-09T20:15:15.373Z,2.60
2019-03-09T20:17:16.204Z,2.87
2019-03-09T20:19:17.040Z,2.60
2019-03-09T20:21:17.901Z,2.67
2019-03-09T20:23:18.731Z,2.70
2019-03-09T20:25:19.856Z,2.63
2019-03-09T20:27:20.696Z,2.80
2019-03-09T20:29:21.543Z,2.43
2019-03-09T20:31:22.425Z,2.43
2019-03-09T20:33:23.277Z,2.10
2019-03-09T20:35:24.133Z,2.17
2019-03-09T20:37:24.984Z,2.20
2019-03-09T20:39:25.838Z,2.30
2019-03-09T20:41:26.690Z,2.40
2019-03-09T20:43:27.588Z,2.40
2019-03-09T20:45:28.675Z,2.60
2019-03-09T20:47:29.532Z,2.20
2019-03-09T20:49:30.390Z,2.40
2019-03-09T20:51:31.225Z,2.37
2019-03-09T20:53:32.057Z,2.27
2019-03-09T20:55:32.921Z,2.70
2019-03-09T20:57:33.748Z,2.50
2019-03-09T20:59:34.616Z,2.20
2019-03-09T21:01:35.444Z,2.20
2019-03-09T21:03:37.182Z,2.43
2019-03-09T21:05:38.044Z,2.50
2019-03-09T21:07:38.900Z,2.30
2019-03-09T21:09:39.747Z,2.20
2019-03-09T21:11:40.588Z,2.20
2019-03-09T21:13:41.456Z,2.10
2019-03-09T21:15:42.339Z,2.47
2019-03-09T21:17:43.181Z,2.40
2019-03-09T21:19:44.035Z,2.30
2019-03-09T21:21:44.886Z,2.50
2019-03-09T21:23:45.752Z,2.10
2019-03-09T21:25:47.519Z,2.10
2019-03-09T21:27:48.559Z,2.30
2019-03-09T21:29:49.416Z,2.00
2019-03-09T21:31:50.279Z,2.30
2019-03-09T21:33:51.137Z,2.10
2019-03-09T21:35:52.019Z,2.33
2019-03-09T21:37:52.878Z,2.20
2019-03-09T21:39:53.729Z,2.40
2019-03-09T21:41:54.578Z,2.23
2019-03-09T21:43:55.444Z,2.17
2019-03-09T21:45:56.284Z,2.30
2019-03-09T21:47:57.406Z,2.17
2019-03-09T21:49:58.252Z,2.60
2019-03-09T21:51:59.080Z,2.30
2019-03-09T21:54:00.039Z,2.40
2019-03-09T21:56:00.874Z,2.20
2019-03-09T21:58:01.765Z,2.03
2019-03-09T22:00:02.636Z,2.20
2019-03-09T22:02:03.488Z,2.20
2019-03-09T22:04:04.333Z,2.10
2019-03-09T22:06:06.397Z,2.10
2019-03-09T22:08:07.612Z,2.10
2019-03-09T22:10:08.469Z,2.20
2019-03-09T22:12:09.303Z,2.00
2019-03-09T22:14:10.459Z,2.17
2019-03-09T22:16:11.321Z,2.37
2019-03-09T22:18:12.154Z,1.90
2019-03-09T22:20:13.004Z,2.20
2019-03-09T22:22:13.849Z,1.97
2019-03-09T22:24:14.696Z,2.00
2019-03-09T22:26:15.523Z,1.90
2019-03-09T22:28:16.374Z,1.93
2019-03-09T22:30:17.192Z,2.30
2019-03-09T22:32:19.581Z,2.30
2019-03-09T22:34:20.624Z,2.30
2019-03-09T22:36:21.460Z,2.30
2019-03-09T22:38:22.316Z,2.00
2019-03-09T22:40:23.140Z,2.00
2019-03-09T22:42:23.975Z,2.03
2019-03-09T22:44:24.830Z,2.20
2019-03-09T22:46:25.673Z,2.00
2019-03-09T22:48:26.496Z,2.20
2019-03-09T22:50:27.358Z,2.40
2019-03-09T22:52:28.201Z,2.17
2019-03-09T22:54:29.049Z,2.20
2019-03-09T22:56:30.222Z,2.07
2019-03-09T22:58:31.085Z,2.20
2019-03-09T23:00:31.920Z,2.17
2019-03-09T23:02:32.772Z,2.20
2019-03-09T23:04:33.940Z,1.90
2019-03-09T23:06:35.189Z,2.07
2019-03-09T23:08:36.036Z,2.00
2019-03-09T23:10:37.198Z,2.30
2019-03-09T23:12:38.104Z,2.10
2019-03-09T23:14:38.958Z,2.23
2019-03-09T23:16:39.788Z,2.20
2019-03-09T23:18:40.909Z,2.30
2019-03-09T23:20:41.752Z,2.10
2019-03-09T23:22:42.603Z,2.10
2019-03-09T23:24:43.429Z,2.53
2019-03-09T23:26:44.260Z,2.27
2019-03-09T23:28:45.096Z,2.30
2019-03-09T23:30:45.929Z,2.23
2019-03-09T23:32:46.759Z,2.37
2019-03-09T23:34:47.896Z,2.30
2019-03-09T23:36:48.733Z,2.37
2019-03-09T23:38:49.565Z,2.10
2019-03-09T23:40:50.704Z,2.50
2019-03-09T23:42:51.556Z,2.40
2019-03-09T23:44:52.420Z,2.40
2019-03-09T23:46:53.592Z,2.30
2019-03-09T23:48:54.546Z,1.97
2019-03-09T23:50:55.381Z,2.17
2019-03-09T23:52:56.228Z,2.50
2019-03-09T23:54:57.456Z,2.63
2019-03-09T23:56:58.293Z,2.40
2019-03-09T23:58:59.128Z,2.47
